Time;durP1;ratioP1;P1;durP2;ratioP2;P2;SDS_P1;SDS_P2;PMS_P1;PMS_P2;Temp;Humidity;BMP_temperature;BMP_pressure;BME280_temperature;BME280_humidity;BME280_pressure;Samples;Min_cycle;Max_cycle;Signal;HPM_P1;HPM_P2
2023/03/27 00:02:00;;;;;;;1.98;0.60;;;;;;;;;;5032875;28;20025;-76
2023/03/27 00:04:25;;;;;;;0.50;0.50;;;;;;;;;;5032799;28;20403;-76
2023/03/27 00:06:50;;;;;;;2.53;0.50;;;;;;;;;;5034073;28;20025;-76
2023/03/27 00:09:16;;;;;;;1.17;0.60;;;;;;;;;;5032755;28;20022;-76
2023/03/27 00:11:41;;;;;;;1.10;0.63;;;;;;;;;;5033758;28;20308;-76
2023/03/27 00:14:07;;;;;;;1.13;0.70;;;;;;;;;;5033792;28;20021;-78
2023/03/27 00:16:33;;;;;;;3.08;0.70;;;;;;;;;;5033641;28;20410;-77
2023/03/27 00:18:59;;;;;;;1.17;0.82;;;;;;;;;;5033510;28;20037;-76
2023/03/27 00:21:24;;;;;;;1.40;0.88;;;;;;;;;;5034005;28;20025;-77
2023/03/27 00:23:50;;;;;;;1.20;0.80;;;;;;;;;;5033928;28;20036;-76
2023/03/27 00:26:16;;;;;;;1.83;0.98;;;;;;;;;;5033820;28;20026;-76
2023/03/27 00:28:41;;;;;;;1.75;1.20;;;;;;;;;;5034460;28;20439;-76
2023/03/27 00:31:12;;;;;;;1.87;0.97;;;;;;;;;;5033723;28;20025;-76
2023/03/27 00:33:38;;;;;;;2.65;1.10;;;;;;;;;;5032333;28;20345;-76
2023/03/27 00:36:03;;;;;;;2.15;1.20;;;;;;;;;;5034280;28;20045;-77
2023/03/27 00:38:28;;;;;;;2.08;1.38;;;;;;;;;;5033558;28;20036;-75
2023/03/27 00:40:54;;;;;;;2.80;1.33;;;;;;;;;;5033501;28;20025;-75
2023/03/27 00:43:27;;;;;;;2.90;1.60;;;;;;;;;;5032340;28;20026;-76
2023/03/27 00:46:04;;;;;;;9.27;1.73;;;;;;;;;;5033733;28;20052;-76
2023/03/27 00:48:32;;;;;;;2.15;1.40;;;;;;;;;;5033505;28;20085;-75
2023/03/27 00:50:58;;;;;;;2.70;1.27;;;;;;;;;;5033566;28;20100;-77
2023/03/27 00:53:26;;;;;;;3.50;1.50;;;;;;;;;;5033271;28;20056;-75
2023/03/27 00:55:54;;;;;;;3.30;1.58;;;;;;;;;;5033730;28;20029;-77
2023/03/27 00:58:36;;;;;;;4.95;1.30;;;;;;;;;;5032094;28;20029;-76
2023/03/27 01:01:02;;;;;;;3.00;1.88;;;;;;;;;;5033442;28;20025;-77
2023/03/27 01:03:31;;;;;;;5.25;2.55;;;;;;;;;;5032016;28;20028;-77
2023/03/27 01:05:59;;;;;;;8.70;2.70;;;;;;;;;;5033025;28;20112;-76
2023/03/27 01:08:28;;;;;;;6.13;2.20;;;;;;;;;;5033199;28;20037;-76
2023/03/27 01:11:12;;;;;;;6.60;2.50;;;;;;;;;;5033075;28;20076;-76
2023/03/27 01:14:07;;;;;;;5.78;1.30;;;;;;;;;;5031937;28;20033;-76
2023/03/27 01:16:55;;;;;;;5.63;1.92;;;;;;;;;;5033109;28;20437;-76
2023/03/27 01:19:59;;;;;;;3.53;1.40;;;;;;;;;;5028816;28;20087;-76
2023/03/27 01:22:54;;;;;;;3.47;1.40;;;;;;;;;;5033570;28;20029;-76
2023/03/27 01:25:47;;;;;;;3.35;1.65;;;;;;;;;;5035993;28;20040;-75
2023/03/27 01:28:34;;;;;;;5.95;1.90;;;;;;;;;;5035406;28;20025;-77
2023/03/27 01:31:23;;;;;;;4.07;0.82;;;;;;;;;;5036928;28;20021;-77
2023/03/27 01:34:13;;;;;;;3.25;1.35;;;;;;;;;;5035492;28;20128;-77
2023/03/27 01:37:11;;;;;;;3.33;1.30;;;;;;;;;;5035407;28;20087;-77
2023/03/27 01:39:49;;;;;;;7.28;1.27;;;;;;;;;;5036598;28;20525;-77
2023/03/27 01:42:31;;;;;;;5.82;1.10;;;;;;;;;;5036502;28;20033;-77
2023/03/27 01:45:10;;;;;;;4.18;1.27;;;;;;;;;;5036719;28;20029;-77
2023/03/27 01:47:39;;;;;;;6.63;1.17;;;;;;;;;;5036383;28;20029;-77
2023/03/27 01:50:27;;;;;;;3.35;0.77;;;;;;;;;;5036585;28;20048;-77
2023/03/27 01:52:58;;;;;;;4.53;1.45;;;;;;;;;;5036880;28;20025;-76
2023/03/27 01:55:29;;;;;;;2.40;0.57;;;;;;;;;;5036403;28;20021;-77
2023/03/27 01:57:59;;;;;;;5.93;0.98;;;;;;;;;;5036452;28;20060;-77
2023/03/27 02:00:26;;;;;;;2.53;1.08;;;;;;;;;;5036775;28;20392;-76
2023/03/27 02:03:10;;;;;;;3.38;1.13;;;;;;;;;;5036323;28;20036;-76
2023/03/27 02:05:41;;;;;;;2.03;0.85;;;;;;;;;;5037093;28;20112;-76
2023/03/27 02:08:26;;;;;;;3.30;1.10;;;;;;;;;;5036349;28;20503;-76
2023/03/27 02:10:56;;;;;;;5.05;1.17;;;;;;;;;;5036567;28;20118;-77
2023/03/27 02:13:35;;;;;;;2.55;0.80;;;;;;;;;;5036117;28;20036;-77
2023/03/27 02:16:02;;;;;;;2.38;0.95;;;;;;;;;;5034915;28;20035;-77
2023/03/27 02:18:33;;;;;;;7.03;1.50;;;;;;;;;;5035929;28;20048;-77
2023/03/27 02:20:58;;;;;;;2.45;1.20;;;;;;;;;;5036027;28;20048;-77
2023/03/27 02:23:23;;;;;;;3.15;1.08;;;;;;;;;;5036426;28;20492;-77
2023/03/27 02:25:50;;;;;;;0.40;0.38;;;;;;;;;;5035802;28;20426;-77
2023/03/27 02:28:28;;;;;;;2.95;0.90;;;;;;;;;;5035952;28;20033;-76
2023/03/27 02:31:01;;;;;;;2.58;1.00;;;;;;;;;;5035811;28;20370;-76
2023/03/27 02:34:01;;;;;;;2.75;0.95;;;;;;;;;;5035644;28;20033;-76
2023/03/27 02:36:40;;;;;;;5.63;1.05;;;;;;;;;;5035792;28;20116;-77
2023/03/27 02:39:24;;;;;;;3.03;1.30;;;;;;;;;;5035415;28;20021;-76
2023/03/27 02:42:02;;;;;;;3.65;1.20;;;;;;;;;;5035582;28;20108;-77
2023/03/27 02:44:46;;;;;;;8.15;1.52;;;;;;;;;;5034032;28;20558;-77
2023/03/27 02:47:27;;;;;;;2.25;0.88;;;;;;;;;;5035471;28;20112;-77
2023/03/27 02:49:58;;;;;;;3.80;1.35;;;;;;;;;;5034058;28;20025;-76
2023/03/27 02:52:38;;;;;;;6.10;1.55;;;;;;;;;;5035569;28;20567;-77
2023/03/27 02:55:18;;;;;;;4.38;1.27;;;;;;;;;;5035196;28;20037;-76
2023/03/27 02:57:48;;;;;;;7.05;1.60;;;;;;;;;;5034945;28;20103;-77
2023/03/27 03:00:24;;;;;;;5.97;1.40;;;;;;;;;;5034988;28;20040;-76
2023/03/27 03:02:52;;;;;;;4.47;1.02;;;;;;;;;;5035401;28;20407;-76
2023/03/27 03:05:21;;;;;;;4.95;1.42;;;;;;;;;;5034949;28;20018;-76
2023/03/27 03:07:47;;;;;;;6.82;1.50;;;;;;;;;;5033531;28;20021;-76
2023/03/27 03:10:14;;;;;;;4.40;1.40;;;;;;;;;;5035330;28;20028;-76
2023/03/27 03:12:40;;;;;;;3.50;1.40;;;;;;;;;;5034691;28;20108;-76
2023/03/27 03:15:06;;;;;;;7.05;1.50;;;;;;;;;;5033467;28;20072;-76
2023/03/27 03:17:32;;;;;;;6.78;1.73;;;;;;;;;;5033460;28;20511;-76
2023/03/27 03:19:57;;;;;;;5.22;1.60;;;;;;;;;;5033186;28;20072;-76
2023/03/27 03:22:22;;;;;;;3.90;1.67;;;;;;;;;;5034392;28;20033;-78
2023/03/27 03:24:48;;;;;;;4.07;1.30;;;;;;;;;;5036858;28;20029;-77
2023/03/27 03:27:13;;;;;;;6.00;1.75;;;;;;;;;;5035690;28;20261;-77
2023/03/27 03:29:40;;;;;;;4.07;1.67;;;;;;;;;;5036812;28;20025;-77
2023/03/27 03:32:05;;;;;;;5.18;1.95;;;;;;;;;;5037636;28;20033;-76
2023/03/27 03:34:32;;;;;;;7.22;1.98;;;;;;;;;;5036012;28;20030;-76
2023/03/27 03:36:58;;;;;;;3.92;1.30;;;;;;;;;;5036158;28;20025;-77
2023/03/27 03:39:23;;;;;;;10.00;1.80;;;;;;;;;;5035113;28;20048;-77
2023/03/27 03:41:48;;;;;;;5.55;1.98;;;;;;;;;;5035569;28;20037;-77
2023/03/27 03:44:13;;;;;;;3.53;1.53;;;;;;;;;;5037258;28;20041;-77
2023/03/27 03:46:39;;;;;;;4.72;1.70;;;;;;;;;;5038875;28;20254;-78
2023/03/27 03:49:05;;;;;;;6.60;1.88;;;;;;;;;;5038056;28;20076;-78
2023/03/27 03:51:31;;;;;;;6.22;1.75;;;;;;;;;;5037427;28;20120;-79
2023/03/27 03:53:57;;;;;;;4.40;1.60;;;;;;;;;;5037269;28;20021;-79
2023/03/27 03:56:22;;;;;;;8.60;2.13;;;;;;;;;;5037063;28;20053;-80
2023/03/27 03:58:48;;;;;;;5.15;1.73;;;;;;;;;;5034136;28;20548;-77
2023/03/27 04:01:13;;;;;;;9.52;1.73;;;;;;;;;;5032685;28;20029;-79
2023/03/27 04:03:39;;;;;;;9.00;1.98;;;;;;;;;;5034372;28;20029;-78
2023/03/27 04:06:06;;;;;;;6.53;1.77;;;;;;;;;;5035612;28;20035;-79
2023/03/27 04:08:32;;;;;;;5.43;1.58;;;;;;;;;;5036876;28;20029;-76
2023/03/27 04:10:58;;;;;;;6.90;1.92;;;;;;;;;;5035606;28;20026;-77
2023/03/27 04:13:23;;;;;;;2.95;1.63;;;;;;;;;;5033762;28;20075;-76
2023/03/27 04:15:50;;;;;;;4.43;1.83;;;;;;;;;;5032620;28;20061;-77
2023/03/27 04:18:18;;;;;;;5.13;1.92;;;;;;;;;;5033751;28;20029;-77
2023/03/27 04:20:48;;;;;;;5.03;2.10;;;;;;;;;;5034737;28;20061;-77
2023/03/27 04:23:17;;;;;;;7.57;1.90;;;;;;;;;;5034296;28;20028;-77
2023/03/27 04:25:42;;;;;;;5.85;1.85;;;;;;;;;;5034241;28;20087;-77
2023/03/27 04:28:09;;;;;;;5.05;1.67;;;;;;;;;;5034173;28;20477;-78
2023/03/27 04:30:35;;;;;;;7.03;2.25;;;;;;;;;;5036432;28;20026;-76
2023/03/27 04:33:01;;;;;;;5.63;2.15;;;;;;;;;;5034275;28;20536;-77
2023/03/27 04:35:26;;;;;;;4.90;2.05;;;;;;;;;;5031770;28;20116;-77
2023/03/27 04:37:52;;;;;;;4.68;1.85;;;;;;;;;;5032157;28;20049;-77
2023/03/27 04:40:17;;;;;;;7.85;1.90;;;;;;;;;;5033617;28;20075;-77
2023/03/27 04:42:43;;;;;;;7.32;1.73;;;;;;;;;;5033717;28;20036;-76
2023/03/27 04:45:15;;;;;;;10.55;2.20;;;;;;;;;;5034048;28;20029;-77
2023/03/27 04:47:41;;;;;;;4.25;2.13;;;;;;;;;;5033806;28;20044;-77
2023/03/27 04:50:07;;;;;;;4.22;2.00;;;;;;;;;;5033973;28;20021;-77
2023/03/27 04:52:33;;;;;;;7.40;1.98;;;;;;;;;;5033297;28;20516;-77
2023/03/27 04:55:00;;;;;;;7.63;2.22;;;;;;;;;;5033456;28;20029;-78
2023/03/27 04:57:27;;;;;;;7.00;2.03;;;;;;;;;;5033306;28;20033;-78
2023/03/27 04:59:52;;;;;;;9.73;2.20;;;;;;;;;;5033013;28;20021;-77
2023/03/27 05:02:17;;;;;;;7.90;1.92;;;;;;;;;;5031771;28;20029;-77
2023/03/27 05:04:43;;;;;;;4.00;1.70;;;;;;;;;;5033275;28;20129;-77
2023/03/27 05:07:10;;;;;;;2.37;1.20;;;;;;;;;;5034411;28;20029;-76
2023/03/27 05:09:36;;;;;;;6.45;1.60;;;;;;;;;;5033540;28;20661;-76
2023/03/27 05:12:02;;;;;;;2.72;1.50;;;;;;;;;;5031702;28;20029;-77
2023/03/27 05:14:27;;;;;;;3.80;2.17;;;;;;;;;;5031881;28;20530;-77
2023/03/27 05:16:52;;;;;;;10.03;2.30;;;;;;;;;;5031673;28;20036;-77
2023/03/27 05:19:18;;;;;;;4.15;1.80;;;;;;;;;;5032928;28;20258;-77
2023/03/27 05:21:45;;;;;;;3.40;0.98;;;;;;;;;;5033223;28;20109;-77
2023/03/27 05:24:11;;;;;;;2.72;1.13;;;;;;;;;;5031513;28;20029;-77
2023/03/27 05:26:37;;;;;;;2.95;1.27;;;;;;;;;;5032860;28;20026;-77
2023/03/27 05:29:04;;;;;;;2.42;1.13;;;;;;;;;;5031393;28;20048;-77
2023/03/27 05:31:30;;;;;;;4.15;1.52;;;;;;;;;;5033027;28;20017;-77
2023/03/27 05:33:55;;;;;;;3.47;1.10;;;;;;;;;;5032853;28;20029;-76
2023/03/27 05:36:23;;;;;;;3.63;1.30;;;;;;;;;;5033953;28;20365;-77
2023/03/27 05:38:49;;;;;;;9.02;1.48;;;;;;;;;;5033074;28;20029;-76
2023/03/27 05:41:15;;;;;;;2.85;1.20;;;;;;;;;;5032588;28;20033;-77
2023/03/27 05:43:40;;;;;;;8.02;1.10;;;;;;;;;;5032577;28;20028;-77
2023/03/27 05:46:06;;;;;;;8.15;1.15;;;;;;;;;;5032640;28;20064;-77
2023/03/27 05:48:32;;;;;;;6.90;1.65;;;;;;;;;;5032703;28;20036;-77
2023/03/27 05:50:57;;;;;;;1.27;1.05;;;;;;;;;;5032504;28;20083;-76
2023/03/27 05:53:23;;;;;;;4.47;1.48;;;;;;;;;;5032823;28;20116;-77
2023/03/27 05:55:48;;;;;;;4.32;1.23;;;;;;;;;;5032310;28;20025;-77
2023/03/27 05:58:13;;;;;;;3.67;1.17;;;;;;;;;;5032253;28;20373;-76
2023/03/27 06:00:43;;;;;;;2.08;0.98;;;;;;;;;;5031167;28;20025;-77
2023/03/27 06:03:11;;;;;;;3.55;1.20;;;;;;;;;;5032684;28;20037;-77
2023/03/27 06:05:39;;;;;;;0.85;0.70;;;;;;;;;;5031212;28;20029;-78
2023/03/27 06:08:04;;;;;;;3.72;1.38;;;;;;;;;;5031163;28;20511;-77
2023/03/27 06:10:32;;;;;;;5.60;1.58;;;;;;;;;;5035312;28;20112;-77
2023/03/27 06:13:00;;;;;;;4.10;1.40;;;;;;;;;;5034375;28;20439;-76
2023/03/27 06:15:25;;;;;;;1.95;0.95;;;;;;;;;;5034471;28;20397;-77
2023/03/27 06:17:50;;;;;;;0.47;0.40;;;;;;;;;;5036003;28;20029;-77
2023/03/27 06:20:18;;;;;;;1.90;0.73;;;;;;;;;;5034915;28;20021;-76
2023/03/27 06:22:49;;;;;;;2.35;0.80;;;;;;;;;;5035527;28;20032;-76
2023/03/27 06:25:17;;;;;;;0.85;0.60;;;;;;;;;;5034232;28;20381;-76
2023/03/27 06:27:45;;;;;;;1.48;1.23;;;;;;;;;;5036009;28;20445;-76
2023/03/27 06:30:11;;;;;;;0.88;0.77;;;;;;;;;;5035469;28;20519;-76
2023/03/27 06:32:43;;;;;;;2.55;1.17;;;;;;;;;;5035489;28;20029;-75
2023/03/27 06:35:09;;;;;;;3.03;1.30;;;;;;;;;;5034168;28;20033;-75
2023/03/27 06:37:35;;;;;;;1.50;0.93;;;;;;;;;;5035206;28;20018;-75
2023/03/27 06:40:01;;;;;;;1.80;1.10;;;;;;;;;;5035231;28;20030;-75
2023/03/27 06:42:27;;;;;;;5.72;1.42;;;;;;;;;;5033844;28;20025;-76
2023/03/27 06:44:52;;;;;;;1.35;1.13;;;;;;;;;;5033939;28;20021;-76
2023/03/27 06:47:17;;;;;;;2.90;1.20;;;;;;;;;;5035176;28;20056;-77
2023/03/27 06:49:46;;;;;;;2.00;1.05;;;;;;;;;;5034995;28;20323;-77
2023/03/27 06:52:12;;;;;;;4.40;1.08;;;;;;;;;;5035182;28;20017;-77
2023/03/27 06:54:37;;;;;;;2.22;1.20;;;;;;;;;;5035235;28;20029;-76
2023/03/27 06:57:03;;;;;;;1.35;0.93;;;;;;;;;;5033702;28;20071;-76
2023/03/27 06:59:28;;;;;;;1.48;0.88;;;;;;;;;;5034884;28;20079;-77
2023/03/27 07:01:53;;;;;;;1.43;1.07;;;;;;;;;;5035127;28;20021;-76
2023/03/27 07:04:18;;;;;;;1.85;0.75;;;;;;;;;;5034771;28;20279;-77
2023/03/27 07:06:47;;;;;;;1.58;0.85;;;;;;;;;;5035087;28;20021;-76
2023/03/27 07:09:13;;;;;;;0.70;0.70;;;;;;;;;;5034724;28;20037;-76
2023/03/27 07:11:38;;;;;;;2.90;0.90;;;;;;;;;;5035482;28;20042;-76
2023/03/27 07:14:03;;;;;;;1.65;0.95;;;;;;;;;;5033480;28;20512;-76
2023/03/27 07:16:30;;;;;;;3.55;1.23;;;;;;;;;;5034622;28;20025;-76
2023/03/27 07:18:56;;;;;;;0.70;0.60;;;;;;;;;;5033309;28;20025;-75
2023/03/27 07:21:21;;;;;;;2.00;0.45;;;;;;;;;;5033632;28;20039;-76
2023/03/27 07:23:46;;;;;;;3.30;0.95;;;;;;;;;;5033292;28;20112;-76
2023/03/27 07:26:12;;;;;;;1.10;0.80;;;;;;;;;;5034724;28;20036;-77
2023/03/27 07:28:37;;;;;;;1.92;0.40;;;;;;;;;;5034391;28;20025;-75
2023/03/27 07:31:12;;;;;;;0.93;0.50;;;;;;;;;;5034482;28;20018;-76
2023/03/27 07:33:37;;;;;;;0.38;0.30;;;;;;;;;;5034834;28;20515;-76
2023/03/27 07:36:05;;;;;;;1.35;0.60;;;;;;;;;;5035356;28;20037;-76
2023/03/27 07:38:31;;;;;;;0.32;0.32;;;;;;;;;;5034355;28;20022;-76
2023/03/27 07:40:56;;;;;;;0.40;0.40;;;;;;;;;;5034377;28;20032;-77
2023/03/27 07:43:21;;;;;;;0.45;0.45;;;;;;;;;;5033196;28;20160;-76
2023/03/27 07:45:48;;;;;;;0.30;0.30;;;;;;;;;;5032974;28;20047;-76
2023/03/27 07:48:14;;;;;;;1.38;0.60;;;;;;;;;;5034244;28;20025;-76
2023/03/27 07:50:41;;;;;;;0.90;0.70;;;;;;;;;;5034404;28;20033;-76
2023/03/27 07:53:06;;;;;;;0.50;0.50;;;;;;;;;;5034151;28;20083;-76
2023/03/27 07:55:31;;;;;;;0.40;0.40;;;;;;;;;;5034228;28;20033;-76
2023/03/27 07:57:57;;;;;;;0.37;0.33;;;;;;;;;;5032686;28;20087;-76
2023/03/27 08:00:23;;;;;;;0.63;0.50;;;;;;;;;;5034258;28;20251;-75
2023/03/27 08:02:51;;;;;;;1.17;0.60;;;;;;;;;;5032726;28;20058;-76
2023/03/27 08:05:17;;;;;;;1.00;0.57;;;;;;;;;;5034002;28;20477;-76
2023/03/27 08:07:44;;;;;;;1.00;0.45;;;;;;;;;;5034059;28;20033;-76
2023/03/27 08:10:10;;;;;;;2.88;0.98;;;;;;;;;;5032413;28;20036;-76
2023/03/27 08:12:35;;;;;;;0.57;0.57;;;;;;;;;;5033604;28;20024;-76
2023/03/27 08:15:01;;;;;;;2.03;0.70;;;;;;;;;;5033612;28;20021;-76
2023/03/27 08:17:27;;;;;;;3.30;0.80;;;;;;;;;;5033543;28;20041;-75
2023/03/27 08:19:52;;;;;;;0.95;0.57;;;;;;;;;;5033466;28;20025;-76
2023/03/27 08:22:19;;;;;;;0.50;0.40;;;;;;;;;;5033384;28;20032;-75
2023/03/27 08:24:45;;;;;;;0.50;0.50;;;;;;;;;;5033475;28;20025;-76
2023/03/27 08:27:11;;;;;;;1.27;0.93;;;;;;;;;;5034147;28;20373;-76
2023/03/27 08:29:37;;;;;;;0.93;0.68;;;;;;;;;;5032398;28;20022;-76
2023/03/27 08:32:03;;;;;;;2.15;0.60;;;;;;;;;;5033102;28;20092;-76
2023/03/27 08:34:29;;;;;;;1.48;0.80;;;;;;;;;;5033859;28;20467;-76
2023/03/27 08:36:54;;;;;;;0.47;0.47;;;;;;;;;;5034387;28;20017;-78
2023/03/27 08:39:21;;;;;;;3.65;0.90;;;;;;;;;;5034473;28;20086;-74
2023/03/27 08:41:58;;;;;;;1.17;0.47;;;;;;;;;;5033397;28;20026;-75
2023/03/27 08:44:26;;;;;;;1.23;0.60;;;;;;;;;;5031999;28;20120;-74
2023/03/27 08:46:57;;;;;;;0.93;0.55;;;;;;;;;;5036634;28;20147;-73
2023/03/27 08:49:26;;;;;;;2.25;0.90;;;;;;;;;;5032994;28;20025;-74
2023/03/27 08:51:51;;;;;;;0.65;0.47;;;;;;;;;;5033058;28;20079;-74
2023/03/27 08:54:21;;;;;;;2.10;0.85;;;;;;;;;;5032356;28;20473;-73
2023/03/27 08:56:48;;;;;;;0.35;0.35;;;;;;;;;;5032964;28;20108;-74
2023/03/27 08:59:16;;;;;;;2.25;0.70;;;;;;;;;;5033389;28;20029;-74
2023/03/27 09:01:47;;;;;;;0.80;0.40;;;;;;;;;;5032894;28;20029;-74
2023/03/27 09:04:30;;;;;;;0.77;0.55;;;;;;;;;;5032961;28;20463;-74
2023/03/27 09:07:18;;;;;;;1.52;0.65;;;;;;;;;;5033400;28;20434;-75
2023/03/27 09:09:54;;;;;;;0.38;0.30;;;;;;;;;;5031531;28;20113;-72
2023/03/27 09:12:31;;;;;;;0.75;0.73;;;;;;;;;;5033258;28;20116;-74
2023/03/27 09:15:06;;;;;;;0.32;0.20;;;;;;;;;;5033782;28;20401;-74
2023/03/27 09:17:37;;;;;;;1.02;0.40;;;;;;;;;;5032095;28;20556;-74
2023/03/27 09:20:16;;;;;;;2.53;0.77;;;;;;;;;;5031746;28;20037;-74
2023/03/27 09:22:51;;;;;;;0.95;0.60;;;;;;;;;;5033171;28;20018;-74
2023/03/27 09:25:22;;;;;;;6.82;0.95;;;;;;;;;;5033169;28;20397;-74
2023/03/27 09:27:48;;;;;;;2.58;1.20;;;;;;;;;;5031459;28;20033;-74
2023/03/27 09:30:20;;;;;;;1.08;0.68;;;;;;;;;;5032979;28;20032;-74
2023/03/27 09:32:48;;;;;;;1.38;0.80;;;;;;;;;;5031729;28;20455;-75
2023/03/27 09:35:14;;;;;;;0.52;0.40;;;;;;;;;;5032900;28;20060;-75
2023/03/27 09:37:41;;;;;;;1.63;0.82;;;;;;;;;;5031637;28;20052;-78
2023/03/27 09:40:20;;;;;;;2.88;0.88;;;;;;;;;;5031984;28;20075;-76
2023/03/27 09:42:47;;;;;;;1.05;0.93;;;;;;;;;;5032780;28;20022;-75
2023/03/27 09:45:13;;;;;;;2.15;0.73;;;;;;;;;;5035060;28;20080;-76
2023/03/27 09:47:44;;;;;;;1.23;0.77;;;;;;;;;;5036593;28;20033;-74
2023/03/27 09:50:28;;;;;;;2.33;0.98;;;;;;;;;;5035556;28;20029;-74
2023/03/27 09:53:17;;;;;;;2.40;0.90;;;;;;;;;;5034962;28;20022;-75
2023/03/27 09:55:49;;;;;;;1.38;0.70;;;;;;;;;;5036507;28;20152;-76
2023/03/27 09:58:23;;;;;;;1.65;0.90;;;;;;;;;;5034940;28;20041;-75
2023/03/27 10:01:05;;;;;;;0.82;0.68;;;;;;;;;;5034970;28;20025;-76
2023/03/27 10:03:37;;;;;;;1.88;0.28;;;;;;;;;;5036373;28;20159;-75
2023/03/27 10:06:08;;;;;;;0.57;0.40;;;;;;;;;;5036469;28;20022;-74
2023/03/27 10:08:45;;;;;;;3.60;1.05;;;;;;;;;;5036405;28;20350;-74
2023/03/27 10:11:19;;;;;;;0.70;0.70;;;;;;;;;;5034805;28;20017;-75
2023/03/27 10:13:47;;;;;;;2.00;1.00;;;;;;;;;;5035120;28;20163;-75
2023/03/27 10:16:16;;;;;;;1.33;0.60;;;;;;;;;;5034774;28;20116;-75
2023/03/27 10:18:48;;;;;;;0.40;0.30;;;;;;;;;;5034820;28;20033;-74
2023/03/27 10:21:26;;;;;;;0.63;0.45;;;;;;;;;;5036314;28;20021;-75
2023/03/27 10:23:59;;;;;;;0.77;0.70;;;;;;;;;;5036666;28;20040;-75
2023/03/27 10:26:26;;;;;;;1.07;0.60;;;;;;;;;;5036458;28;20530;-75
2023/03/27 10:28:51;;;;;;;2.30;1.10;;;;;;;;;;5036132;28;20100;-76
2023/03/27 10:31:36;;;;;;;1.38;0.80;;;;;;;;;;5036209;28;20067;-76
2023/03/27 10:34:04;;;;;;;0.88;0.45;;;;;;;;;;5034833;28;20084;-75
2023/03/27 10:36:36;;;;;;;1.98;1.00;;;;;;;;;;5034305;28;20022;-75
2023/03/27 10:39:08;;;;;;;2.15;0.50;;;;;;;;;;5035268;28;20444;-75
2023/03/27 10:41:35;;;;;;;7.30;1.15;;;;;;;;;;5035755;28;20126;-75
2023/03/27 10:44:04;;;;;;;3.58;0.80;;;;;;;;;;5035425;28;20025;-73
2023/03/27 10:46:31;;;;;;;1.85;0.70;;;;;;;;;;5035515;28;20108;-75
2023/03/27 10:48:59;;;;;;;1.25;0.70;;;;;;;;;;5035256;28;20108;-75
2023/03/27 10:51:42;;;;;;;1.95;0.80;;;;;;;;;;5035385;28;20473;-75
2023/03/27 10:54:25;;;;;;;1.33;0.90;;;;;;;;;;5035376;28;20055;-75
2023/03/27 10:57:01;;;;;;;7.97;0.95;;;;;;;;;;5033995;28;20396;-76
2023/03/27 10:59:34;;;;;;;5.55;1.00;;;;;;;;;;5033674;28;20022;-74
2023/03/27 11:02:11;;;;;;;1.15;0.60;;;;;;;;;;5034918;28;20109;-74
2023/03/27 11:04:44;;;;;;;0.50;0.50;;;;;;;;;;5033764;28;20053;-75
2023/03/27 11:07:32;;;;;;;1.50;0.68;;;;;;;;;;5033591;28;20066;-75
2023/03/27 11:10:02;;;;;;;1.58;0.43;;;;;;;;;;5035159;28;20052;-76
2023/03/27 11:12:31;;;;;;;2.72;0.70;;;;;;;;;;5033484;28;20021;-75
2023/03/27 11:15:16;;;;;;;0.80;0.50;;;;;;;;;;5035024;28;20022;-74
2023/03/27 11:18:04;;;;;;;0.95;0.50;;;;;;;;;;5035156;28;20033;-74
2023/03/27 11:20:42;;;;;;;1.77;0.88;;;;;;;;;;5034460;28;20573;-75
2023/03/27 11:23:14;;;;;;;3.22;0.63;;;;;;;;;;5034727;28;20029;-74
2023/03/27 11:25:45;;;;;;;3.35;0.70;;;;;;;;;;5034617;28;20029;-74
2023/03/27 11:28:27;;;;;;;2.88;0.95;;;;;;;;;;5033178;28;20021;-75
2023/03/27 11:31:12;;;;;;;1.95;0.50;;;;;;;;;;5033257;28;20431;-74
2023/03/27 11:33:50;;;;;;;1.60;0.60;;;;;;;;;;5034298;28;20025;-74
2023/03/27 11:36:33;;;;;;;1.92;1.00;;;;;;;;;;5034390;28;20028;-75
2023/03/27 11:39:14;;;;;;;0.90;0.45;;;;;;;;;;5033090;28;20443;-73
2023/03/27 11:41:39;;;;;;;3.03;0.70;;;;;;;;;;5034099;28;20041;-74
2023/03/27 11:44:05;;;;;;;1.75;0.70;;;;;;;;;;5034129;28;20024;-74
2023/03/27 11:46:43;;;;;;;1.50;0.80;;;;;;;;;;5034036;28;20481;-74
2023/03/27 11:49:32;;;;;;;0.80;0.50;;;;;;;;;;5032654;28;20029;-74
2023/03/27 11:52:11;;;;;;;3.90;0.50;;;;;;;;;;5033998;28;20030;-73
2023/03/27 11:54:55;;;;;;;0.43;0.32;;;;;;;;;;5034181;28;20017;-73
2023/03/27 11:57:22;;;;;;;2.63;0.63;;;;;;;;;;5033829;28;20084;-73
2023/03/27 12:00:05;;;;;;;1.83;0.50;;;;;;;;;;5032303;28;20395;-74
2023/03/27 12:02:55;;;;;;;2.55;0.63;;;;;;;;;;5034235;28;20053;-73
2023/03/27 12:05:29;;;;;;;4.50;1.00;;;;;;;;;;5033727;28;20043;-73
2023/03/27 12:08:08;;;;;;;;;;;;;;;;;;5033588;28;20108;-72
2023/03/27 12:10:36;;;;;;;0.30;0.22;;;;;;;;;;5032413;28;20339;-74
2023/03/27 12:13:27;;;;;;;2.80;0.77;;;;;;;;;;5033624;28;20481;-72
2023/03/27 12:16:32;;;;;;;2.03;0.60;;;;;;;;;;5032061;28;20053;-73
2023/03/27 12:19:04;;;;;;;0.90;0.55;;;;;;;;;;5033632;28;20377;-73
2023/03/27 12:21:54;;;;;;;1.67;0.70;;;;;;;;;;5033375;28;20041;-73
2023/03/27 12:24:39;;;;;;;3.35;0.75;;;;;;;;;;5032036;28;20029;-73
2023/03/27 12:27:26;;;;;;;1.02;0.45;;;;;;;;;;5031915;28;20055;-74
2023/03/27 12:30:11;;;;;;;3.15;0.77;;;;;;;;;;5033686;28;20041;-74
2023/03/27 12:33:05;;;;;;;7.10;0.90;;;;;;;;;;5033838;28;20132;-73
2023/03/27 12:35:38;;;;;;;0.65;0.55;;;;;;;;;;5033538;28;20029;-73
2023/03/27 12:38:09;;;;;;;1.55;0.63;;;;;;;;;;5032110;28;20114;-74
2023/03/27 12:40:40;;;;;;;1.40;0.70;;;;;;;;;;5033123;28;20064;-74
2023/03/27 12:43:28;;;;;;;2.75;0.85;;;;;;;;;;5031815;28;20041;-73
2023/03/27 12:46:15;;;;;;;4.38;0.75;;;;;;;;;;5031731;28;20025;-71
2023/03/27 12:48:53;;;;;;;2.72;1.00;;;;;;;;;;5032971;28;20026;-73
2023/03/27 12:51:33;;;;;;;2.17;0.75;;;;;;;;;;5031678;28;20378;-73
2023/03/27 12:54:13;;;;;;;3.00;0.68;;;;;;;;;;5033010;28;20036;-73
2023/03/27 12:56:39;;;;;;;1.98;0.93;;;;;;;;;;5031607;28;20079;-73
2023/03/27 12:59:17;;;;;;;1.70;0.88;;;;;;;;;;5031454;28;20121;-73
2023/03/27 13:01:42;;;;;;;2.33;0.98;;;;;;;;;;5033053;28;20368;-73
2023/03/27 13:04:32;;;;;;;2.33;0.80;;;;;;;;;;5031478;28;20027;-73
2023/03/27 13:07:11;;;;;;;1.25;0.55;;;;;;;;;;5032882;28;20026;-73
2023/03/27 13:09:59;;;;;;;1.15;0.60;;;;;;;;;;5031489;28;20025;-73
2023/03/27 13:12:38;;;;;;;0.50;0.22;;;;;;;;;;5032707;28;20026;-74
2023/03/27 13:15:30;;;;;;;0.35;0.30;;;;;;;;;;5031427;28;20075;-74
2023/03/27 13:18:14;;;;;;;2.97;0.70;;;;;;;;;;5031469;28;20463;-73
2023/03/27 13:20:58;;;;;;;2.83;0.57;;;;;;;;;;5036017;28;20044;-73
2023/03/27 13:23:51;;;;;;;0.93;0.47;;;;;;;;;;5036957;28;20477;-74
2023/03/27 13:26:32;;;;;;;2.75;0.57;;;;;;;;;;5037000;28;20472;-73
2023/03/27 13:28:57;;;;;;;0.65;0.20;;;;;;;;;;5036697;28;20037;-73
2023/03/27 13:31:45;;;;;;;1.48;0.68;;;;;;;;;;5035205;28;20087;-74
2023/03/27 13:34:35;;;;;;;3.70;0.75;;;;;;;;;;5035220;28;20032;-74
2023/03/27 13:37:24;;;;;;;4.70;0.82;;;;;;;;;;5036595;28;20108;-75
2023/03/27 13:40:00;;;;;;;1.95;0.50;;;;;;;;;;5036470;28;20491;-74
2023/03/27 13:42:34;;;;;;;1.48;0.50;;;;;;;;;;5035649;28;20025;-78
2023/03/27 13:45:20;;;;;;;5.40;0.90;;;;;;;;;;5036733;28;20132;-77
2023/03/27 13:48:05;;;;;;;2.00;0.70;;;;;;;;;;5036473;28;20096;-77
2023/03/27 13:50:52;;;;;;;1.60;0.75;;;;;;;;;;5036595;28;20108;-77
2023/03/27 13:53:49;;;;;;;0.65;0.47;;;;;;;;;;5035052;28;20028;-77
2023/03/27 13:56:47;;;;;;;0.98;0.68;;;;;;;;;;5035548;28;20461;-79
2023/03/27 13:59:45;;;;;;;2.72;0.68;;;;;;;;;;5033485;28;20037;-75
2023/03/27 14:02:13;;;;;;;1.05;0.45;;;;;;;;;;5034902;28;20113;-73
2023/03/27 14:04:49;;;;;;;0.50;0.40;;;;;;;;;;5034624;28;20029;-73
2023/03/27 14:07:52;;;;;;;2.67;0.73;;;;;;;;;;5034740;28;20067;-73
2023/03/27 14:10:51;;;;;;;1.17;0.65;;;;;;;;;;5033305;28;20391;-73
2023/03/27 14:13:52;;;;;;;4.35;1.00;;;;;;;;;;5034869;28;20022;-74
2023/03/27 14:16:50;;;;;;;1.38;0.50;;;;;;;;;;5033307;28;20075;-75
2023/03/27 14:19:30;;;;;;;1.85;0.70;;;;;;;;;;5034638;28;20035;-73
2023/03/27 14:22:08;;;;;;;1.73;0.63;;;;;;;;;;5033075;28;20099;-72
2023/03/27 14:24:43;;;;;;;1.05;0.50;;;;;;;;;;5034473;28;20442;-73
2023/03/27 14:27:11;;;;;;;0.93;0.63;;;;;;;;;;5034645;28;20040;-74
2023/03/27 14:29:36;;;;;;;1.40;0.50;;;;;;;;;;5033913;28;20100;-74
2023/03/27 14:32:03;;;;;;;0.43;0.40;;;;;;;;;;5034503;28;20049;-74
2023/03/27 14:34:30;;;;;;;1.13;0.43;;;;;;;;;;5034473;28;20029;-73
2023/03/27 14:36:55;;;;;;;0.55;0.50;;;;;;;;;;5034292;28;20481;-73
2023/03/27 14:39:25;;;;;;;1.23;0.43;;;;;;;;;;5032785;28;20033;-73
2023/03/27 14:41:53;;;;;;;1.23;0.95;;;;;;;;;;5034296;28;20022;-73
2023/03/27 14:44:19;;;;;;;0.95;0.68;;;;;;;;;;5034289;28;20033;-73
2023/03/27 14:46:47;;;;;;;2.45;0.65;;;;;;;;;;5034087;28;20056;-73
2023/03/27 14:49:18;;;;;;;1.27;0.60;;;;;;;;;;5032726;28;20022;-74
2023/03/27 14:51:46;;;;;;;1.77;0.60;;;;;;;;;;5032585;28;20443;-73
2023/03/27 14:54:25;;;;;;;3.65;0.80;;;;;;;;;;5033923;28;20083;-73
2023/03/27 14:56:51;;;;;;;1.65;0.60;;;;;;;;;;5000388;28;978487;-72
2023/03/27 14:59:21;;;;;;;4.95;0.88;;;;;;;;;;5034770;28;20160;-72
2023/03/27 15:01:49;;;;;;;2.47;0.80;;;;;;;;;;5034669;28;20045;-73
2023/03/27 15:04:15;;;;;;;2.65;1.00;;;;;;;;;;5035041;28;20503;-72
2023/03/27 15:06:41;;;;;;;2.30;1.20;;;;;;;;;;5034646;28;20030;-72
2023/03/27 15:09:22;;;;;;;0.43;0.43;;;;;;;;;;5034858;28;20029;-72
2023/03/27 15:11:52;;;;;;;3.40;1.15;;;;;;;;;;5034939;28;20096;-72
2023/03/27 15:14:24;;;;;;;1.20;0.70;;;;;;;;;;5034746;28;20033;-72